This is the latest recevied weather packets stored in our database for station/object KF4PPJ. If no packets are shown the sender has not sent any weather packets the latest 10 day(s).
| Time | Temp. | Humidity | Pressure | Rain* | Wind** | Luminosity | Snow |
|---|---|---|---|---|---|---|---|
| 1777834633 | 24.44° C | 45% | 1015.7 hPa | 0 mm | - | 595 W/m² | - |
| 1777834328 | 24.44° C | 48% | 1016 hPa | 0 mm | - | 480 W/m² | - |
| 1777834023 | 24.44° C | 48% | 1016.1 hPa | 0 mm | - | 415 W/m² | - |
| 1777833720 | 24.44° C | 48% | 1016.1 hPa | 0 mm | - | 446 W/m² | - |
| 1777833416 | 23.89° C | 48% | 1016.2 hPa | 0 mm | - | 540 W/m² | - |
| 1777833114 | 24.44° C | 48% | 1016.4 hPa | 0 mm | - | 494 W/m² | - |
| 1777832811 | 23.33° C | 49% | 1015.9 hPa | 0 mm | - | 712 W/m² | - |
| 1777832510 | 23.33° C | 50% | 1016.3 hPa | 0 mm | - | 613 W/m² | - |
| 1777832206 | 23.33° C | 51% | 1016.3 hPa | 0 mm | - | 517 W/m² | - |
| 1777831903 | 22.78° C | 51% | 1016.3 hPa | 0 mm | - | 573 W/m² | - |
| 1777831600 | 22.78° C | 51% | 1016.5 hPa | 0 mm | - | 682 W/m² | - |
| 1777831298 | 22.78° C | 52% | 1016.3 hPa | 0 mm | - | 737 W/m² | - |
| 1777830995 | 22.78° C | 51% | 1016.2 hPa | 0 mm | - | 733 W/m² | - |
| 1777830692 | 23.33° C | 52% | 1016.3 hPa | 0 mm | - | 694 W/m² | - |
| 1777830383 | 22.78° C | 52% | 1016.5 hPa | 0 mm | - | 690 W/m² | - |
| 1777830080 | 22.22° C | 52% | 1016.4 hPa | 0 mm | - | 631 W/m² | - |
| 1777829775 | 21.67° C | 55% | 1016.5 hPa | 0 mm | - | 630 W/m² | - |
| 1777829472 | 21.67° C | 57% | 1016.3 hPa | 0 mm | - | 419 W/m² | - |
| 1777829169 | 21.67° C | 52% | 1016.5 hPa | 0 mm | - | 651 W/m² | - |
| 1777828866 | 21.67° C | 52% | 1016.6 hPa | 0 mm | - | 585 W/m² | - |
| 1777828562 | 21.67° C | 53% | 1016.6 hPa | 0 mm | - | 545 W/m² | - |
| 1777828260 | 22.22° C | 51% | 1016.6 hPa | 0 mm | - | 558 W/m² | - |
| 1777827956 | 21.67° C | 52% | 1016.5 hPa | 0 mm | - | 561 W/m² | - |
| 1777827654 | 21.67° C | 53% | 1016.6 hPa | 0 mm | - | 515 W/m² | - |
| 1777827351 | 21.11° C | 55% | 1016.6 hPa | 0 mm | - | 462 W/m² | - |
* Rain latest hour (hover to see other rain measurements)
** Current wind speed in m/s (hover to see current wind gust speed)